sensor_id;sensor_type;location;lat;lon;timestamp;pressure;altitude;pressure_sealevel;temperature;humidity
22031;BME280;11179;52.106;21.024;2022-11-20T00:01:18;100406.31;;;-5.55;61.18
22031;BME280;11179;52.106;21.024;2022-11-20T00:03:45;100411.13;;;-5.59;61.24
22031;BME280;11179;52.106;21.024;2022-11-20T00:06:13;100396.84;;;-5.67;61.33
22031;BME280;11179;52.106;21.024;2022-11-20T00:08:39;100373.28;;;-5.81;61.41
22031;BME280;11179;52.106;21.024;2022-11-20T00:11:10;100386.59;;;-5.72;61.40
22031;BME280;11179;52.106;21.024;2022-11-20T00:13:36;100390.94;;;-5.71;61.21
22031;BME280;11179;52.106;21.024;2022-11-20T00:16:04;100377.50;;;-5.79;61.23
22031;BME280;11179;52.106;21.024;2022-11-20T00:18:30;100395.28;;;-5.70;61.40
22031;BME280;11179;52.106;21.024;2022-11-20T00:21:04;100403.94;;;-5.58;61.36
22031;BME280;11179;52.106;21.024;2022-11-20T00:23:30;100397.06;;;-5.61;61.39
22031;BME280;11179;52.106;21.024;2022-11-20T00:25:55;100376.88;;;-5.73;61.29
22031;BME280;11179;52.106;21.024;2022-11-20T00:28:21;100377.72;;;-5.72;61.30
22031;BME280;11179;52.106;21.024;2022-11-20T00:30:46;100401.94;;;-5.56;61.28
22031;BME280;11179;52.106;21.024;2022-11-20T00:33:12;100376.06;;;-5.73;61.24
22031;BME280;11179;52.106;21.024;2022-11-20T00:35:37;100381.22;;;-5.72;61.50
22031;BME280;11179;52.106;21.024;2022-11-20T00:38:03;100395.91;;;-5.58;61.51
22031;BME280;11179;52.106;21.024;2022-11-20T00:40:28;100398.91;;;-5.61;61.46
22031;BME280;11179;52.106;21.024;2022-11-20T00:42:53;100383.00;;;-5.63;61.52
22031;BME280;11179;52.106;21.024;2022-11-20T00:45:19;100359.19;;;-5.74;61.34
22031;BME280;11179;52.106;21.024;2022-11-20T00:47:44;100364.34;;;-5.72;61.52
22031;BME280;11179;52.106;21.024;2022-11-20T00:50:12;100368.09;;;-5.65;61.64
22031;BME280;11179;52.106;21.024;2022-11-20T00:52:38;100369.41;;;-5.69;61.45
22031;BME280;11179;52.106;21.024;2022-11-20T00:55:03;100387.13;;;-5.50;61.55
22031;BME280;11179;52.106;21.024;2022-11-20T00:57:29;100365.47;;;-5.57;61.71
22031;BME280;11179;52.106;21.024;2022-11-20T00:59:54;100355.41;;;-5.63;61.50
22031;BME280;11179;52.106;21.024;2022-11-20T01:02:20;100362.13;;;-5.59;61.57
22031;BME280;11179;52.106;21.024;2022-11-20T01:04:45;100343.50;;;-5.69;61.62
22031;BME280;11179;52.106;21.024;2022-11-20T01:07:10;100351.75;;;-5.62;61.69
22031;BME280;11179;52.106;21.024;2022-11-20T01:09:36;100358.16;;;-5.55;61.92
22031;BME280;11179;52.106;21.024;2022-11-20T01:12:01;100346.00;;;-5.67;61.62
22031;BME280;11179;52.106;21.024;2022-11-20T01:14:27;100333.78;;;-5.70;61.79
22031;BME280;11179;52.106;21.024;2022-11-20T01:16:52;100333.03;;;-5.62;61.71
22031;BME280;11179;52.106;21.024;2022-11-20T01:19:20;100350.22;;;-5.47;61.61
22031;BME280;11179;52.106;21.024;2022-11-20T01:21:48;100360.91;;;-5.47;61.68
22031;BME280;11179;52.106;21.024;2022-11-20T01:24:16;100333.34;;;-5.65;61.51
22031;BME280;11179;52.106;21.024;2022-11-20T01:26:43;100359.84;;;-5.54;61.64
22031;BME280;11179;52.106;21.024;2022-11-20T01:29:20;100329.38;;;-5.79;61.65
22031;BME280;11179;52.106;21.024;2022-11-20T01:31:46;100357.84;;;-5.70;61.49
22031;BME280;11179;52.106;21.024;2022-11-20T01:34:19;100351.06;;;-5.82;61.76
22031;BME280;11179;52.106;21.024;2022-11-20T01:36:46;100348.25;;;-5.80;61.91
22031;BME280;11179;52.106;21.024;2022-11-20T01:39:17;100357.78;;;-5.78;61.89
22031;BME280;11179;52.106;21.024;2022-11-20T01:41:43;100355.81;;;-5.76;62.03
22031;BME280;11179;52.106;21.024;2022-11-20T01:44:57;100349.47;;;-5.75;61.91
22031;BME280;11179;52.106;21.024;2022-11-20T01:47:25;100354.66;;;-5.73;62.10
22031;BME280;11179;52.106;21.024;2022-11-20T01:50:17;100355.19;;;-5.70;62.02
22031;BME280;11179;52.106;21.024;2022-11-20T01:53:04;100350.66;;;-5.69;62.04
22031;BME280;11179;52.106;21.024;2022-11-20T01:55:36;100337.25;;;-5.77;61.87
22031;BME280;11179;52.106;21.024;2022-11-20T01:58:05;100337.94;;;-5.75;62.05
22031;BME280;11179;52.106;21.024;2022-11-20T02:00:31;100344.63;;;-5.71;62.14
22031;BME280;11179;52.106;21.024;2022-11-20T02:02:58;100352.34;;;-5.68;62.40
22031;BME280;11179;52.106;21.024;2022-11-20T02:05:36;100348.75;;;-5.59;62.38
22031;BME280;11179;52.106;21.024;2022-11-20T02:08:05;100342.94;;;-5.54;62.26
22031;BME280;11179;52.106;21.024;2022-11-20T02:10:31;100340.28;;;-5.54;62.23
22031;BME280;11179;52.106;21.024;2022-11-20T02:12:57;100345.47;;;-5.53;62.43
22031;BME280;11179;52.106;21.024;2022-11-20T02:15:42;100338.28;;;-5.52;62.37
22031;BME280;11179;52.106;21.024;2022-11-20T02:18:09;100340.13;;;-5.53;62.44
22031;BME280;11179;52.106;21.024;2022-11-20T02:20:35;100324.66;;;-5.59;62.53
22031;BME280;11179;52.106;21.024;2022-11-20T02:23:19;100321.38;;;-5.53;62.63
22031;BME280;11179;52.106;21.024;2022-11-20T02:25:47;100317.34;;;-5.57;62.56
22031;BME280;11179;52.106;21.024;2022-11-20T02:28:13;100339.72;;;-5.40;62.58
22031;BME280;11179;52.106;21.024;2022-11-20T02:30:38;100334.50;;;-5.42;62.66
22031;BME280;11179;52.106;21.024;2022-11-20T02:33:03;100329.16;;;-5.42;62.64
22031;BME280;11179;52.106;21.024;2022-11-20T02:37:56;100349.47;;;-5.31;62.82
22031;BME280;11179;52.106;21.024;2022-11-20T02:40:22;100346.94;;;-5.33;62.77
22031;BME280;11179;52.106;21.024;2022-11-20T02:42:51;100331.72;;;-5.32;62.84
22031;BME280;11179;52.106;21.024;2022-11-20T02:45:17;100338.59;;;-5.30;62.87
22031;BME280;11179;52.106;21.024;2022-11-20T02:47:42;100295.94;;;-5.57;62.95
22031;BME280;11179;52.106;21.024;2022-11-20T02:50:08;100336.78;;;-5.29;62.91
22031;BME280;11179;52.106;21.024;2022-11-20T02:52:33;100327.00;;;-5.38;62.97
22031;BME280;11179;52.106;21.024;2022-11-20T02:54:58;100345.34;;;-5.26;63.02
22031;BME280;11179;52.106;21.024;2022-11-20T02:57:24;100350.38;;;-5.22;63.14
22031;BME280;11179;52.106;21.024;2022-11-20T02:59:49;100330.88;;;-5.33;63.15
22031;BME280;11179;52.106;21.024;2022-11-20T03:02:14;100349.88;;;-5.18;63.20
22031;BME280;11179;52.106;21.024;2022-11-20T03:04:40;100331.66;;;-5.22;63.26
22031;BME280;11179;52.106;21.024;2022-11-20T03:07:05;100340.56;;;-5.14;63.17
22031;BME280;11179;52.106;21.024;2022-11-20T03:09:32;100333.31;;;-5.21;63.28
22031;BME280;11179;52.106;21.024;2022-11-20T03:11:57;100337.34;;;-5.17;63.35
22031;BME280;11179;52.106;21.024;2022-11-20T03:14:23;100333.69;;;-5.16;63.01
22031;BME280;11179;52.106;21.024;2022-11-20T03:16:48;100340.41;;;-5.12;63.21
22031;BME280;11179;52.106;21.024;2022-11-20T03:19:13;100302.56;;;-5.43;63.22
22031;BME280;11179;52.106;21.024;2022-11-20T03:21:39;100345.03;;;-5.22;63.32
22031;BME280;11179;52.106;21.024;2022-11-20T03:24:05;100341.97;;;-5.28;63.23
22031;BME280;11179;52.106;21.024;2022-11-20T03:26:30;100341.78;;;-5.34;63.44
22031;BME280;11179;52.106;21.024;2022-11-20T03:29:01;100346.13;;;-5.33;63.53
22031;BME280;11179;52.106;21.024;2022-11-20T03:31:35;100335.72;;;-5.36;63.49
22031;BME280;11179;52.106;21.024;2022-11-20T03:34:01;100332.38;;;-5.38;63.48
22031;BME280;11179;52.106;21.024;2022-11-20T03:36:27;100332.00;;;-5.43;63.63
22031;BME280;11179;52.106;21.024;2022-11-20T03:38:56;100327.13;;;-5.48;63.69
22031;BME280;11179;52.106;21.024;2022-11-20T03:41:27;100321.78;;;-5.48;63.63
22031;BME280;11179;52.106;21.024;2022-11-20T03:43:57;100332.81;;;-5.43;63.59
22031;BME280;11179;52.106;21.024;2022-11-20T03:46:23;100322.91;;;-5.50;63.70
22031;BME280;11179;52.106;21.024;2022-11-20T03:48:48;100324.06;;;-5.53;63.73
22031;BME280;11179;52.106;21.024;2022-11-20T03:51:20;100312.63;;;-5.63;63.78
22031;BME280;11179;52.106;21.024;2022-11-20T03:53:47;100318.31;;;-5.58;63.62
22031;BME280;11179;52.106;21.024;2022-11-20T03:56:15;100323.63;;;-5.66;63.79
22031;BME280;11179;52.106;21.024;2022-11-20T03:58:42;100331.94;;;-5.69;63.87
22031;BME280;11179;52.106;21.024;2022-11-20T04:01:08;100326.91;;;-5.72;63.89
22031;BME280;11179;52.106;21.024;2022-11-20T04:03:37;100331.34;;;-5.81;64.00
22031;BME280;11179;52.106;21.024;2022-11-20T04:06:06;100318.06;;;-5.90;64.04
22031;BME280;11179;52.106;21.024;2022-11-20T04:08:31;100326.25;;;-5.92;64.20
22031;BME280;11179;52.106;21.024;2022-11-20T04:11:08;100322.47;;;-5.99;64.19
22031;BME280;11179;52.106;21.024;2022-11-20T04:13:33;100293.41;;;-6.20;64.23
22031;BME280;11179;52.106;21.024;2022-11-20T04:15:59;100311.88;;;-6.09;64.31
22031;BME280;11179;52.106;21.024;2022-11-20T04:18:24;100306.31;;;-6.15;64.30
22031;BME280;11179;52.106;21.024;2022-11-20T04:20:49;100293.19;;;-6.26;64.51
22031;BME280;11179;52.106;21.024;2022-11-20T04:23:14;100324.25;;;-6.08;64.37
22031;BME280;11179;52.106;21.024;2022-11-20T04:25:40;100309.28;;;-6.18;64.43
22031;BME280;11179;52.106;21.024;2022-11-20T04:28:05;100318.97;;;-6.17;64.54
22031;BME280;11179;52.106;21.024;2022-11-20T04:30:30;100311.25;;;-6.20;64.58
22031;BME280;11179;52.106;21.024;2022-11-20T04:32:56;100303.03;;;-6.27;64.61
22031;BME280;11179;52.106;21.024;2022-11-20T04:35:21;100303.03;;;-6.27;64.71
22031;BME280;11179;52.106;21.024;2022-11-20T04:37:46;100293.09;;;-6.35;64.68
22031;BME280;11179;52.106;21.024;2022-11-20T04:40:12;100307.06;;;-6.23;64.77
22031;BME280;11179;52.106;21.024;2022-11-20T04:42:37;100305.53;;;-6.25;64.81
22031;BME280;11179;52.106;21.024;2022-11-20T04:45:03;100290.13;;;-6.32;64.78
22031;BME280;11179;52.106;21.024;2022-11-20T04:47:28;100290.41;;;-6.35;64.80
22031;BME280;11179;52.106;21.024;2022-11-20T04:49:54;100290.19;;;-6.41;64.87
22031;BME280;11179;52.106;21.024;2022-11-20T04:52:19;100286.22;;;-6.37;64.83
22031;BME280;11179;52.106;21.024;2022-11-20T04:54:44;100283.16;;;-6.42;65.01
22031;BME280;11179;52.106;21.024;2022-11-20T04:57:10;100280.16;;;-6.39;65.08
22031;BME280;11179;52.106;21.024;2022-11-20T04:59:35;100261.00;;;-6.52;65.00
22031;BME280;11179;52.106;21.024;2022-11-20T05:02:00;100283.16;;;-6.42;65.00
22031;BME280;11179;52.106;21.024;2022-11-20T05:04:25;100268.56;;;-6.48;65.12
22031;BME280;11179;52.106;21.024;2022-11-20T05:06:51;100262.38;;;-6.48;65.12
22031;BME280;11179;52.106;21.024;2022-11-20T05:09:16;100259.03;;;-6.50;65.04
22031;BME280;11179;52.106;21.024;2022-11-20T05:11:41;100248.66;;;-6.53;64.99
22031;BME280;11179;52.106;21.024;2022-11-20T05:14:07;100263.09;;;-6.46;65.18
22031;BME280;11179;52.106;21.024;2022-11-20T05:16:34;100263.09;;;-6.46;65.10
22031;BME280;11179;52.106;21.024;2022-11-20T05:19:00;100224.75;;;-6.73;64.93
22031;BME280;11179;52.106;21.024;2022-11-20T05:21:25;100288.44;;;-6.33;64.92
22031;BME280;11179;52.106;21.024;2022-11-20T05:23:51;100260.69;;;-6.49;64.98
22031;BME280;11179;52.106;21.024;2022-11-20T05:26:21;100280.72;;;-6.36;65.03
22031;BME280;11179;52.106;21.024;2022-11-20T05:28:48;100290.97;;;-6.31;65.07
22031;BME280;11179;52.106;21.024;2022-11-20T05:31:22;100287.75;;;-6.35;65.20
22031;BME280;11179;52.106;21.024;2022-11-20T05:33:47;100282.53;;;-6.36;64.95
22031;BME280;11179;52.106;21.024;2022-11-20T05:36:14;100292.25;;;-6.35;65.08
22031;BME280;11179;52.106;21.024;2022-11-20T05:38:40;100292.38;;;-6.37;65.04
22031;BME280;11179;52.106;21.024;2022-11-20T05:41:11;100272.63;;;-6.44;65.05
22031;BME280;11179;52.106;21.024;2022-11-20T05:43:39;100262.38;;;-6.48;65.14
22031;BME280;11179;52.106;21.024;2022-11-20T05:46:06;100280.03;;;-6.38;65.13
22031;BME280;11179;52.106;21.024;2022-11-20T05:48:32;100279.34;;;-6.40;65.20
22031;BME280;11179;52.106;21.024;2022-11-20T05:50:59;100267.03;;;-6.50;65.18
22031;BME280;11179;52.106;21.024;2022-11-20T05:53:24;100264.91;;;-6.47;65.07
22031;BME280;11179;52.106;21.024;2022-11-20T05:56:00;100251.63;;;-6.56;65.07
22031;BME280;11179;52.106;21.024;2022-11-20T05:58:26;100276.28;;;-6.45;65.12
22031;BME280;11179;52.106;21.024;2022-11-20T06:00:51;100255.66;;;-6.52;65.17
22031;BME280;11179;52.106;21.024;2022-11-20T06:03:16;100266.75;;;-6.47;65.16
22031;BME280;11179;52.106;21.024;2022-11-20T06:05:42;100273.47;;;-6.43;65.14
22031;BME280;11179;52.106;21.024;2022-11-20T06:08:07;100252.84;;;-6.51;65.07
22031;BME280;11179;52.106;21.024;2022-11-20T06:10:33;100261.53;;;-6.49;65.22
22031;BME280;11179;52.106;21.024;2022-11-20T06:12:58;100263.53;;;-6.51;64.93
22031;BME280;11179;52.106;21.024;2022-11-20T06:15:24;100268.56;;;-6.48;65.17
22031;BME280;11179;52.106;21.024;2022-11-20T06:17:52;100253.16;;;-6.54;64.91
22031;BME280;11179;52.106;21.024;2022-11-20T06:20:18;100272.09;;;-6.47;64.98
22031;BME280;11179;52.106;21.024;2022-11-20T06:22:50;100255.00;;;-6.54;65.10
22031;BME280;11179;52.106;21.024;2022-11-20T06:25:15;100263.09;;;-6.46;65.21
22031;BME280;11179;52.106;21.024;2022-11-20T06:27:40;100246.13;;;-6.55;64.94
22031;BME280;11179;52.106;21.024;2022-11-20T06:30:06;100253.25;;;-6.46;65.00
22031;BME280;11179;52.106;21.024;2022-11-20T06:32:32;100225.91;;;-6.57;65.00
22031;BME280;11179;52.106;21.024;2022-11-20T06:34:58;100246.81;;;-6.35;65.06
22031;BME280;11179;52.106;21.024;2022-11-20T06:37:23;100258.66;;;-6.20;65.09
22031;BME280;11179;52.106;21.024;2022-11-20T06:39:48;100255.91;;;-6.10;65.12
22031;BME280;11179;52.106;21.024;2022-11-20T06:42:14;100260.34;;;-6.01;65.16
22031;BME280;11179;52.106;21.024;2022-11-20T06:44:39;100245.59;;;-5.87;64.98
22031;BME280;11179;52.106;21.024;2022-11-20T06:47:04;100258.91;;;-5.70;64.90
22031;BME280;11179;52.106;21.024;2022-11-20T06:49:30;100245.59;;;-5.62;64.69
22031;BME280;11179;52.106;21.024;2022-11-20T06:51:55;100248.53;;;-5.47;64.50
22031;BME280;11179;52.106;21.024;2022-11-20T06:54:20;100252.28;;;-5.32;64.37
22031;BME280;11179;52.106;21.024;2022-11-20T06:56:47;100249.66;;;-5.24;64.18
22031;BME280;11179;52.106;21.024;2022-11-20T06:59:13;100242.50;;;-5.15;63.99
22031;BME280;11179;52.106;21.024;2022-11-20T07:01:38;100242.91;;;-5.02;63.85
22031;BME280;11179;52.106;21.024;2022-11-20T07:04:03;100257.53;;;-4.88;63.56
22031;BME280;11179;52.106;21.024;2022-11-20T07:06:29;100267.09;;;-4.77;63.72
22031;BME280;11179;52.106;21.024;2022-11-20T07:12:17;100250.63;;;-4.48;63.10
22031;BME280;11179;52.106;21.024;2022-11-20T07:14:44;100242.09;;;-4.44;63.10
22031;BME280;11179;52.106;21.024;2022-11-20T07:17:09;100246.28;;;-4.25;62.73
22031;BME280;11179;52.106;21.024;2022-11-20T07:19:34;100208.44;;;-4.30;62.54
22031;BME280;11179;52.106;21.024;2022-11-20T07:22:00;100231.91;;;-4.08;62.28
22031;BME280;11179;52.106;21.024;2022-11-20T07:24:25;100200.06;;;-4.19;62.14
22031;BME280;11179;52.106;21.024;2022-11-20T07:26:50;100223.88;;;-4.00;61.90
22031;BME280;11179;52.106;21.024;2022-11-20T07:29:16;100219.84;;;-4.04;61.86
22031;BME280;11179;52.106;21.024;2022-11-20T07:31:42;100235.94;;;-3.96;61.67
22031;BME280;11179;52.106;21.024;2022-11-20T07:34:08;100247.16;;;-3.84;61.66
22031;BME280;11179;52.106;21.024;2022-11-20T07:36:34;100225.72;;;-3.76;61.49
22031;BME280;11179;52.106;21.024;2022-11-20T07:38:59;100217.47;;;-3.66;61.33
22031;BME280;11179;52.106;21.024;2022-11-20T07:41:25;100222.16;;;-3.68;61.33
22031;BME280;11179;52.106;21.024;2022-11-20T07:43:50;100202.88;;;-3.72;61.16
22031;BME280;11179;52.106;21.024;2022-11-20T07:46:15;100176.75;;;-3.78;61.35
22031;BME280;11179;52.106;21.024;2022-11-20T07:48:41;100204.34;;;-3.53;61.26
22031;BME280;11179;52.106;21.024;2022-11-20T07:51:06;100234.00;;;-3.22;61.06
22031;BME280;11179;52.106;21.024;2022-11-20T07:53:31;100220.00;;;-3.10;60.95
22031;BME280;11179;52.106;21.024;2022-11-20T07:56:01;100198.06;;;-3.21;60.53
22031;BME280;11179;52.106;21.024;2022-11-20T07:58:28;100212.56;;;-2.99;60.64
22031;BME280;11179;52.106;21.024;2022-11-20T08:00:54;100232.00;;;-2.81;60.57
22031;BME280;11179;52.106;21.024;2022-11-20T08:03:19;100214.88;;;-2.88;60.31
22031;BME280;11179;52.106;21.024;2022-11-20T08:05:45;100190.75;;;-2.96;60.59
22031;BME280;11179;52.106;21.024;2022-11-20T08:08:10;100185.03;;;-2.93;60.06
22031;BME280;11179;52.106;21.024;2022-11-20T08:10:35;100197.75;;;-2.87;59.90
22031;BME280;11179;52.106;21.024;2022-11-20T08:13:01;100212.63;;;-2.77;59.85
22031;BME280;11179;52.106;21.024;2022-11-20T08:15:48;100204.97;;;-2.88;59.85
22031;BME280;11179;52.106;21.024;2022-11-20T08:18:16;100228.41;;;-2.74;60.08
22031;BME280;11179;52.106;21.024;2022-11-20T08:20:42;100226.50;;;-2.65;59.93
22031;BME280;11179;52.106;21.024;2022-11-20T08:23:08;100188.28;;;-2.75;59.75
22031;BME280;11179;52.106;21.024;2022-11-20T08:25:35;100186.94;;;-2.79;59.46
22031;BME280;11179;52.106;21.024;2022-11-20T08:28:04;100213.88;;;-2.56;59.80
22031;BME280;11179;52.106;21.024;2022-11-20T08:30:30;100214.47;;;-2.46;59.69
22031;BME280;11179;52.106;21.024;2022-11-20T08:33:00;100197.09;;;-2.36;59.57
22031;BME280;11179;52.106;21.024;2022-11-20T08:35:26;100173.66;;;-2.50;59.37
22031;BME280;11179;52.106;21.024;2022-11-20T08:37:51;100203.38;;;-2.20;59.42
22031;BME280;11179;52.106;21.024;2022-11-20T08:40:17;100159.53;;;-2.44;59.23
22031;BME280;11179;52.106;21.024;2022-11-20T08:42:49;100180.97;;;-2.36;59.17
22031;BME280;11179;52.106;21.024;2022-11-20T08:45:16;100191.19;;;-2.31;59.31
22031;BME280;11179;52.106;21.024;2022-11-20T08:47:42;100194.28;;;-2.19;59.22
22031;BME280;11179;52.106;21.024;2022-11-20T08:50:09;100184.47;;;-2.12;59.42
22031;BME280;11179;52.106;21.024;2022-11-20T08:52:35;100169.28;;;-2.05;59.36
22031;BME280;11179;52.106;21.024;2022-11-20T08:55:00;100192.06;;;-1.93;59.07
22031;BME280;11179;52.106;21.024;2022-11-20T08:57:25;100184.56;;;-1.83;59.14
22031;BME280;11179;52.106;21.024;2022-11-20T08:59:51;100170.75;;;-1.80;59.04
22031;BME280;11179;52.106;21.024;2022-11-20T09:02:16;100176.78;;;-1.78;59.01
22031;BME280;11179;52.106;21.024;2022-11-20T09:04:41;100170.66;;;-1.72;58.85
22031;BME280;11179;52.106;21.024;2022-11-20T09:07:07;100182.00;;;-1.61;58.83
22031;BME280;11179;52.106;21.024;2022-11-20T09:09:32;100142.50;;;-1.84;58.59
22031;BME280;11179;52.106;21.024;2022-11-20T09:11:58;100165.53;;;-1.81;58.80
22031;BME280;11179;52.106;21.024;2022-11-20T09:14:24;100149.00;;;-1.93;58.92
22031;BME280;11179;52.106;21.024;2022-11-20T09:16:56;100169.81;;;-1.87;58.73
22031;BME280;11179;52.106;21.024;2022-11-20T09:19:23;100170.38;;;-1.77;58.80
22031;BME280;11179;52.106;21.024;2022-11-20T09:21:49;100110.78;;;-2.03;58.92
22031;BME280;11179;52.106;21.024;2022-11-20T09:24:15;100134.91;;;-1.80;58.81
22031;BME280;11179;52.106;21.024;2022-11-20T09:26:40;100146.00;;;-1.60;58.72
22031;BME280;11179;52.106;21.024;2022-11-20T09:29:05;100157.00;;;-1.70;58.77
22031;BME280;11179;52.106;21.024;2022-11-20T09:31:31;100133.34;;;-1.75;58.90
22031;BME280;11179;52.106;21.024;2022-11-20T09:33:56;100146.34;;;-1.63;58.58
22031;BME280;11179;52.106;21.024;2022-11-20T09:36:22;100102.81;;;-1.82;58.85
22031;BME280;11179;52.106;21.024;2022-11-20T09:38:48;100141.63;;;-1.47;58.84
22031;BME280;11179;52.106;21.024;2022-11-20T09:41:36;100135.13;;;-1.38;58.91
22031;BME280;11179;52.106;21.024;2022-11-20T09:47:12;100131.22;;;-1.20;58.83
22031;BME280;11179;52.106;21.024;2022-11-20T09:50:17;100128.03;;;-1.09;58.63
22031;BME280;11179;52.106;21.024;2022-11-20T09:55:38;100132.84;;;-1.05;58.82
22031;BME280;11179;52.106;21.024;2022-11-20T09:58:33;100141.91;;;-0.91;58.83
22031;BME280;11179;52.106;21.024;2022-11-20T10:01:05;100148.69;;;-0.80;58.56
22031;BME280;11179;52.106;21.024;2022-11-20T10:06:12;100147.88;;;-0.81;58.38
22031;BME280;11179;52.106;21.024;2022-11-20T10:08:45;100136.16;;;-0.88;58.30
22031;BME280;11179;52.106;21.024;2022-11-20T10:11:24;100148.38;;;-0.71;58.34
22031;BME280;11179;52.106;21.024;2022-11-20T10:14:06;100142.16;;;-0.71;58.26
22031;BME280;11179;52.106;21.024;2022-11-20T10:27:32;100118.53;;;-0.48;58.11
22031;BME280;11179;52.106;21.024;2022-11-20T10:30:08;100112.69;;;-0.51;57.98
22031;BME280;11179;52.106;21.024;2022-11-20T10:32:43;100109.56;;;-0.55;58.18
22031;BME280;11179;52.106;21.024;2022-11-20T10:35:20;100094.22;;;-0.54;58.30
22031;BME280;11179;52.106;21.024;2022-11-20T10:37:59;100100.75;;;-0.42;58.10
22031;BME280;11179;52.106;21.024;2022-11-20T10:40:38;100098.50;;;-0.39;58.04
22031;BME280;11179;52.106;21.024;2022-11-20T10:43:12;100097.72;;;-0.33;57.98
22031;BME280;11179;52.106;21.024;2022-11-20T10:45:58;100109.81;;;-0.29;57.87
22031;BME280;11179;52.106;21.024;2022-11-20T10:48:26;100106.09;;;-0.28;57.95
22031;BME280;11179;52.106;21.024;2022-11-20T11:02:14;100086.78;;;-0.03;57.81
22031;BME280;11179;52.106;21.024;2022-11-20T11:04:44;100076.56;;;-0.08;57.69
22031;BME280;11179;52.106;21.024;2022-11-20T11:07:15;100080.53;;;-0.04;57.75
22031;BME280;11179;52.106;21.024;2022-11-20T11:09:46;100086.22;;;0.08;57.79
22031;BME280;11179;52.106;21.024;2022-11-20T11:12:12;100087.69;;;0.10;57.81
22031;BME280;11179;52.106;21.024;2022-11-20T11:14:47;100083.72;;;0.06;57.70
22031;BME280;11179;52.106;21.024;2022-11-20T11:19:58;100098.97;;;0.21;57.79
22031;BME280;11179;52.106;21.024;2022-11-20T11:22:24;100079.63;;;0.17;57.54
22031;BME280;11179;52.106;21.024;2022-11-20T11:24:53;100084.06;;;0.25;57.54
22031;BME280;11179;52.106;21.024;2022-11-20T11:27:18;100068.63;;;0.19;57.50
22031;BME280;11179;52.106;21.024;2022-11-20T11:29:44;100075.75;;;0.26;57.48
22031;BME280;11179;52.106;21.024;2022-11-20T11:32:14;100091.53;;;0.29;57.24
22031;BME280;11179;52.106;21.024;2022-11-20T11:34:40;100070.88;;;0.15;57.04
22031;BME280;11179;52.106;21.024;2022-11-20T11:37:13;100089.47;;;0.31;57.32
22031;BME280;11179;52.106;21.024;2022-11-20T11:39:42;100078.47;;;0.26;56.97
22031;BME280;11179;52.106;21.024;2022-11-20T11:42:11;100084.91;;;0.32;57.00
22031;BME280;11179;52.106;21.024;2022-11-20T11:44:44;100082.03;;;0.33;56.95
22031;BME280;11179;52.106;21.024;2022-11-20T11:47:45;100069.09;;;0.29;56.83
22031;BME280;11179;52.106;21.024;2022-11-20T11:55:26;100066.06;;;0.38;56.74
22031;BME280;11179;52.106;21.024;2022-11-20T11:58:11;100070.47;;;0.46;56.79
22031;BME280;11179;52.106;21.024;2022-11-20T12:06:39;100057.91;;;0.32;56.71
22031;BME280;11179;52.106;21.024;2022-11-20T12:09:10;100055.00;;;0.33;56.48
22031;BME280;11179;52.106;21.024;2022-11-20T12:11:51;100051.69;;;0.31;56.67
22031;BME280;11179;52.106;21.024;2022-11-20T12:16:49;100002.16;;;0.11;56.46
22031;BME280;11179;52.106;21.024;2022-11-20T12:19:15;100025.50;;;0.25;56.54
22031;BME280;11179;52.106;21.024;2022-11-20T12:21:55;100041.31;;;0.35;56.73
22031;BME280;11179;52.106;21.024;2022-11-20T12:37:54;100022.59;;;0.33;56.41
22031;BME280;11179;52.106;21.024;2022-11-20T12:43:23;100025.31;;;0.33;56.34
22031;BME280;11179;52.106;21.024;2022-11-20T12:48:56;100010.97;;;0.26;56.41
22031;BME280;11179;52.106;21.024;2022-11-20T12:51:42;100016.56;;;0.31;56.42
22031;BME280;11179;52.106;21.024;2022-11-20T12:57:45;100012.00;;;0.25;56.31
22031;BME280;11179;52.106;21.024;2022-11-20T13:00:16;100013.22;;;0.29;56.37
22031;BME280;11179;52.106;21.024;2022-11-20T13:08:00;100008.25;;;0.26;56.26
22031;BME280;11179;52.106;21.024;2022-11-20T13:11:09;99997.22;;;0.21;56.19
22031;BME280;11179;52.106;21.024;2022-11-20T13:16:35;99981.78;;;0.15;56.11
22031;BME280;11179;52.106;21.024;2022-11-20T13:19:04;99998.88;;;0.22;56.21
22031;BME280;11179;52.106;21.024;2022-11-20T13:21:43;99990.34;;;0.19;56.24
22031;BME280;11179;52.106;21.024;2022-11-20T13:29:26;99983.28;;;0.18;56.34
22031;BME280;11179;52.106;21.024;2022-11-20T13:32:05;99965.38;;;0.10;56.26
22031;BME280;11179;52.106;21.024;2022-11-20T13:34:31;99980.34;;;0.12;56.39
22031;BME280;11179;52.106;21.024;2022-11-20T13:36:58;99968.03;;;0.03;56.56
22031;BME280;11179;52.106;21.024;2022-11-20T13:39:43;99975.53;;;0.08;56.24
22031;BME280;11179;52.106;21.024;2022-11-20T13:44:48;99979.22;;;0.00;56.69
22031;BME280;11179;52.106;21.024;2022-11-20T13:47:27;99964.88;;;-0.07;56.58
22031;BME280;11179;52.106;21.024;2022-11-20T13:49:54;99960.69;;;-0.09;56.47
22031;BME280;11179;52.106;21.024;2022-11-20T13:55:35;99968.59;;;-0.14;56.83
22031;BME280;11179;52.106;21.024;2022-11-20T14:00:26;99957.72;;;-0.28;56.86
22031;BME280;11179;52.106;21.024;2022-11-20T14:03:18;99959.16;;;-0.25;56.92
22031;BME280;11179;52.106;21.024;2022-11-20T14:06:00;99957.06;;;-0.30;57.20
22031;BME280;11179;52.106;21.024;2022-11-20T14:08:36;99952.44;;;-0.36;57.32
22031;BME280;11179;52.106;21.024;2022-11-20T14:11:26;99953.28;;;-0.35;57.35
22031;BME280;11179;52.106;21.024;2022-11-20T14:14:17;99945.94;;;-0.48;57.46
22031;BME280;11179;52.106;21.024;2022-11-20T14:16:42;99953.25;;;-0.42;57.74
22031;BME280;11179;52.106;21.024;2022-11-20T14:19:35;99946.97;;;-0.49;57.94
22031;BME280;11179;52.106;21.024;2022-11-20T14:22:23;99949.81;;;-0.57;58.15
22031;BME280;11179;52.106;21.024;2022-11-20T14:25:01;99947.06;;;-0.64;58.14
22031;BME280;11179;52.106;21.024;2022-11-20T14:27:27;99942.66;;;-0.71;58.39
22031;BME280;11179;52.106;21.024;2022-11-20T14:29:52;99947.41;;;-0.73;58.87